createdAt,value
2019-05-06T00:01:29.643Z,76.60
2019-05-06T00:04:01.039Z,76.80
2019-05-06T00:06:31.211Z,76.90
2019-05-06T00:09:01.271Z,77.00
2019-05-06T00:11:34.649Z,77.10
2019-05-06T00:14:04.686Z,76.50
2019-05-06T00:16:34.980Z,77.10
2019-05-06T00:19:05.220Z,76.80
2019-05-06T00:21:35.733Z,78.00
2019-05-06T00:24:05.903Z,77.00
2019-05-06T00:26:46.358Z,76.80
2019-05-06T00:29:19.062Z,77.10
2019-05-06T00:31:49.199Z,77.00
2019-05-06T00:34:19.268Z,77.30
2019-05-06T00:36:49.465Z,77.60
2019-05-06T00:39:21.552Z,77.40
2019-05-06T00:42:05.486Z,77.40
2019-05-06T00:44:34.754Z,77.30
2019-05-06T00:47:05.327Z,78.10
2019-05-06T00:49:35.459Z,77.70
2019-05-06T00:52:05.564Z,77.70
2019-05-06T00:54:36.087Z,77.70
2019-05-06T00:57:06.222Z,77.50
2019-05-06T00:59:36.739Z,77.60
2019-05-06T01:02:06.927Z,77.20
2019-05-06T01:04:37.270Z,77.10
2019-05-06T01:07:07.596Z,77.00
2019-05-06T01:09:38.014Z,77.90
2019-05-06T01:12:08.938Z,76.80
2019-05-06T01:14:50.151Z,76.50
2019-05-06T01:17:20.342Z,76.50
2019-05-06T01:19:51.138Z,76.90
2019-05-06T01:22:24.496Z,76.50
2019-05-06T01:24:55.695Z,76.10
2019-05-06T01:27:25.674Z,76.20
2019-05-06T01:29:55.738Z,76.10
2019-05-06T01:32:25.742Z,76.10
2019-05-06T01:34:55.797Z,76.70
2019-05-06T01:37:27.617Z,76.90
2019-05-06T01:40:04.061Z,77.00
2019-05-06T01:42:50.623Z,77.30
2019-05-06T01:45:20.751Z,77.20
2019-05-06T01:47:51.190Z,77.40
2019-05-06T01:50:23.472Z,76.80
2019-05-06T01:52:54.024Z,76.40
2019-05-06T01:55:24.295Z,76.60
2019-05-06T01:57:54.640Z,76.30
2019-05-06T02:00:25.299Z,76.50
2019-05-06T02:02:55.430Z,76.80
2019-05-06T02:05:25.557Z,76.80
2019-05-06T02:07:55.614Z,77.00
2019-05-06T02:10:25.674Z,77.30
2019-05-06T02:12:55.734Z,77.00
2019-05-06T02:15:25.792Z,77.10
2019-05-06T02:17:55.794Z,77.00
2019-05-06T02:20:25.934Z,76.50
2019-05-06T02:22:57.707Z,77.00
2019-05-06T02:25:29.399Z,76.70
2019-05-06T02:27:59.398Z,76.60
2019-05-06T02:30:37.189Z,77.00
2019-05-06T02:33:11.901Z,77.20
2019-05-06T02:35:45.389Z,76.30
2019-05-06T02:38:39.224Z,77.60
2019-05-06T02:41:03.463Z,77.00
2019-05-06T02:43:34.616Z,78.10
2019-05-06T02:46:05.418Z,77.10
2019-05-06T02:48:49.466Z,77.50
2019-05-06T02:51:24.157Z,77.10
2019-05-06T02:53:53.982Z,77.40
2019-05-06T02:56:24.263Z,77.20
2019-05-06T02:58:54.311Z,77.00
2019-05-06T03:01:24.366Z,76.50
2019-05-06T03:03:55.716Z,76.80
2019-05-06T03:06:26.053Z,76.50
2019-05-06T03:08:56.119Z,76.40
2019-05-06T03:11:26.250Z,76.50
2019-05-06T03:13:56.389Z,76.70
2019-05-06T03:16:26.457Z,76.10
2019-05-06T03:18:56.614Z,76.30
2019-05-06T03:21:45.039Z,76.10
2019-05-06T03:24:16.796Z,76.00
2019-05-06T03:26:48.408Z,76.50
2019-05-06T03:29:18.470Z,76.80
2019-05-06T03:31:55.657Z,77.00
2019-05-06T03:34:49.751Z,76.80
2019-05-06T03:36:56.079Z,77.30
2019-05-06T03:39:26.480Z,77.30
2019-05-06T03:41:56.607Z,77.50
2019-05-06T03:44:26.612Z,77.40
2019-05-06T03:47:16.675Z,77.60
2019-05-06T03:49:50.157Z,77.50
2019-05-06T03:52:23.240Z,77.50
2019-05-06T03:54:54.783Z,77.40
2019-05-06T03:57:27.198Z,77.30
2019-05-06T03:59:59.390Z,77.60
2019-05-06T04:02:29.579Z,77.70
2019-05-06T04:04:59.719Z,78.10
2019-05-06T04:07:30.515Z,77.90
2019-05-06T04:10:03.560Z,77.80
2019-05-06T04:12:34.553Z,77.50
2019-05-06T04:15:05.849Z,77.70
2019-05-06T04:17:44.100Z,77.90
2019-05-06T04:20:16.015Z,77.70
2019-05-06T04:22:48.484Z,77.80
2019-05-06T04:25:43.432Z,77.60
2019-05-06T04:28:16.058Z,77.60
2019-05-06T04:30:46.251Z,77.60
2019-05-06T04:33:17.700Z,77.70
2019-05-06T04:35:49.055Z,77.90
2019-05-06T04:38:19.599Z,77.20
2019-05-06T04:40:49.731Z,76.80
2019-05-06T04:43:20.082Z,77.30
2019-05-06T04:45:53.689Z,77.30
2019-05-06T04:48:23.851Z,77.70
2019-05-06T04:50:54.500Z,77.40
2019-05-06T04:53:27.061Z,78.70
2019-05-06T04:55:57.167Z,77.00
2019-05-06T04:58:27.568Z,78.00
2019-05-06T05:01:15.994Z,77.30
2019-05-06T05:04:03.986Z,76.70
2019-05-06T05:06:34.391Z,77.20
2019-05-06T05:09:05.903Z,77.60
2019-05-06T05:11:42.368Z,77.60
2019-05-06T05:14:13.770Z,77.50
2019-05-06T05:17:02.180Z,77.40
2019-05-06T05:19:32.872Z,77.80
2019-05-06T05:22:06.047Z,76.40
2019-05-06T05:24:37.444Z,76.70
2019-05-06T05:27:08.528Z,76.80
2019-05-06T05:29:38.667Z,76.90
2019-05-06T05:32:08.803Z,76.90
2019-05-06T05:34:40.779Z,77.00
2019-05-06T05:37:12.126Z,76.80
2019-05-06T05:39:42.728Z,76.70
2019-05-06T05:42:14.439Z,76.30
2019-05-06T05:44:46.231Z,76.10
2019-05-06T05:47:17.599Z,76.00
2019-05-06T05:50:04.432Z,76.00
2019-05-06T05:52:34.575Z,76.30
2019-05-06T05:55:05.212Z,76.60
2019-05-06T05:57:35.714Z,75.90
2019-05-06T06:00:06.420Z,75.70
2019-05-06T06:02:36.484Z,75.30
2019-05-06T06:05:07.917Z,74.70
2019-05-06T06:07:38.039Z,74.30
2019-05-06T06:10:26.386Z,73.90
2019-05-06T06:12:56.513Z,74.70
2019-05-06T06:15:28.361Z,74.20
2019-05-06T06:18:02.463Z,74.30
2019-05-06T06:20:46.223Z,74.10
2019-05-06T06:23:18.967Z,73.90
2019-05-06T06:25:49.054Z,73.30
2019-05-06T06:28:19.451Z,73.80
2019-05-06T06:31:02.893Z,74.20
2019-05-06T06:33:33.014Z,73.80
2019-05-06T06:36:23.150Z,73.60
2019-05-06T06:38:57.874Z,73.40
2019-05-06T06:41:28.006Z,73.60
2019-05-06T06:44:05.491Z,73.00
2019-05-06T06:46:35.690Z,72.50
2019-05-06T06:49:05.760Z,72.00
2019-05-06T06:51:35.889Z,71.40
2019-05-06T06:54:06.094Z,72.10
2019-05-06T06:56:42.273Z,69.80
2019-05-06T06:59:19.695Z,68.40
2019-05-06T07:02:07.390Z,68.40
2019-05-06T07:04:39.371Z,67.60
2019-05-06T07:07:09.681Z,68.70
2019-05-06T07:09:41.948Z,70.40
2019-05-06T07:12:13.253Z,70.20
2019-05-06T07:14:43.545Z,70.70
2019-05-06T07:17:13.832Z,70.30
2019-05-06T07:19:45.636Z,70.40
2019-05-06T07:22:16.166Z,70.30
2019-05-06T07:24:46.234Z,70.30
2019-05-06T07:27:18.003Z,70.20
2019-05-06T07:29:48.775Z,69.90
2019-05-06T07:32:19.362Z,69.60
2019-05-06T07:34:49.355Z,69.70
2019-05-06T07:37:21.949Z,68.70
2019-05-06T07:39:52.956Z,67.70
2019-05-06T07:42:24.533Z,66.60
2019-05-06T07:45:12.611Z,66.10
2019-05-06T07:47:44.388Z,65.80
2019-05-06T07:50:15.286Z,65.00
2019-05-06T07:52:47.070Z,65.10
2019-05-06T07:55:17.282Z,65.20
2019-05-06T07:57:49.825Z,65.00
2019-05-06T08:00:19.558Z,64.50
2019-05-06T08:02:49.686Z,64.60
2019-05-06T08:05:19.826Z,64.50
2019-05-06T08:07:49.964Z,63.20
2019-05-06T08:10:22.037Z,61.80
2019-05-06T08:12:52.715Z,61.10
2019-05-06T08:15:22.942Z,60.50
2019-05-06T08:17:53.470Z,59.70
2019-05-06T08:20:26.785Z,59.80
2019-05-06T08:23:04.367Z,59.40
2019-05-06T08:25:38.890Z,58.70
2019-05-06T08:28:09.022Z,59.20
2019-05-06T08:30:39.181Z,59.90
2019-05-06T08:33:09.359Z,58.80
2019-05-06T08:35:39.875Z,58.90
2019-05-06T08:38:12.003Z,58.50
2019-05-06T08:40:43.046Z,59.00
2019-05-06T08:43:13.403Z,58.80
2019-05-06T08:45:43.538Z,59.10
2019-05-06T08:48:13.672Z,59.20
2019-05-06T08:50:45.370Z,58.00
2019-05-06T08:53:17.161Z,57.30
2019-05-06T08:55:54.758Z,56.50
2019-05-06T08:58:43.211Z,56.90
2019-05-06T09:01:16.172Z,56.90
2019-05-06T09:03:46.642Z,57.00
2019-05-06T09:06:26.506Z,56.10
2019-05-06T09:08:48.566Z,56.20
2019-05-06T09:11:18.791Z,55.30
2019-05-06T09:13:49.247Z,54.70
2019-05-06T09:16:19.451Z,54.40
2019-05-06T09:18:49.655Z,53.00
2019-05-06T09:21:19.791Z,52.50
2019-05-06T09:23:53.073Z,51.70
2019-05-06T09:26:27.740Z,52.10
2019-05-06T09:29:05.602Z,50.80
2019-05-06T09:31:40.078Z,50.50
2019-05-06T09:34:14.918Z,51.10
2019-05-06T09:36:51.655Z,50.60
2019-05-06T09:39:16.883Z,49.20
2019-05-06T09:41:48.946Z,49.30
2019-05-06T09:44:18.675Z,47.90
2019-05-06T09:46:48.760Z,48.10
2019-05-06T09:49:22.881Z,47.60
2019-05-06T09:51:53.178Z,47.00
2019-05-06T09:54:24.947Z,45.90
2019-05-06T09:56:59.782Z,45.50
2019-05-06T09:59:32.035Z,45.40
2019-05-06T10:02:01.738Z,45.90
2019-05-06T10:04:32.489Z,44.00
2019-05-06T10:07:03.844Z,43.70
2019-05-06T10:09:34.066Z,44.70
2019-05-06T10:12:04.499Z,42.90
2019-05-06T10:14:34.701Z,41.00
2019-05-06T10:17:05.833Z,42.30
2019-05-06T10:19:36.439Z,41.70
2019-05-06T10:22:06.430Z,42.90
2019-05-06T10:24:36.814Z,42.60
2019-05-06T10:27:07.264Z,42.20
2019-05-06T10:29:39.114Z,41.10
2019-05-06T10:32:13.602Z,41.10
2019-05-06T10:34:44.075Z,40.30
2019-05-06T10:37:22.995Z,40.30
2019-05-06T10:40:03.275Z,39.70
2019-05-06T10:42:49.552Z,38.60
2019-05-06T10:45:25.294Z,39.50
2019-05-06T10:47:56.024Z,38.40
2019-05-06T10:50:28.151Z,37.90
2019-05-06T10:53:16.687Z,39.40
2019-05-06T10:55:54.363Z,39.70
2019-05-06T10:58:24.638Z,40.30
2019-05-06T11:00:59.171Z,39.60
2019-05-06T11:03:29.300Z,39.30
2019-05-06T11:05:59.368Z,40.70
2019-05-06T11:08:29.502Z,39.50
2019-05-06T11:11:14.491Z,39.40
2019-05-06T11:13:32.254Z,38.60
2019-05-06T11:16:03.393Z,37.70
2019-05-06T11:18:33.812Z,37.30
2019-05-06T11:21:03.945Z,38.60
2019-05-06T11:23:34.023Z,39.90
2019-05-06T11:26:04.131Z,40.10
2019-05-06T11:28:42.588Z,40.80
2019-05-06T11:31:29.930Z,40.40
2019-05-06T11:34:05.058Z,41.60
2019-05-06T11:36:48.870Z,42.70
2019-05-06T11:39:18.181Z,42.70
2019-05-06T11:42:05.308Z,41.90
2019-05-06T11:44:20.247Z,41.70
2019-05-06T11:46:52.333Z,42.30
2019-05-06T11:49:23.417Z,41.90
2019-05-06T11:51:53.614Z,41.30
2019-05-06T11:54:24.496Z,42.60
2019-05-06T11:56:58.393Z,42.40
2019-05-06T11:59:27.206Z,41.90
2019-05-06T12:02:02.731Z,40.90
2019-05-06T12:04:34.163Z,41.70
2019-05-06T12:07:11.137Z,42.40
2019-05-06T12:09:36.322Z,42.20
2019-05-06T12:12:06.445Z,42.20
2019-05-06T12:14:36.575Z,42.60
2019-05-06T12:17:06.703Z,43.60
2019-05-06T12:19:37.272Z,43.00
2019-05-06T12:22:07.341Z,43.80
2019-05-06T12:24:37.546Z,43.00
2019-05-06T12:27:07.744Z,42.30
2019-05-06T12:29:38.442Z,43.00
2019-05-06T12:32:12.401Z,41.40
2019-05-06T12:34:43.040Z,42.40
2019-05-06T12:37:14.665Z,42.00
2019-05-06T12:39:46.368Z,43.00
2019-05-06T12:42:18.060Z,40.80
2019-05-06T12:44:49.717Z,41.80
2019-05-06T12:47:33.795Z,42.20
2019-05-06T12:50:05.295Z,42.20
2019-05-06T12:52:35.428Z,42.40
2019-05-06T12:55:20.387Z,42.80
2019-05-06T12:57:38.566Z,42.10
2019-05-06T13:00:09.178Z,41.70
2019-05-06T13:02:40.006Z,42.30
2019-05-06T13:05:12.478Z,42.60
2019-05-06T13:07:43.671Z,43.10
2019-05-06T13:10:14.370Z,42.30
2019-05-06T13:12:46.215Z,41.90
2019-05-06T13:15:16.441Z,41.80
2019-05-06T13:17:47.627Z,43.20
2019-05-06T13:20:17.854Z,42.70
2019-05-06T13:22:53.409Z,42.50
2019-05-06T13:25:24.047Z,42.70
2019-05-06T13:27:54.455Z,42.90
2019-05-06T13:30:24.641Z,42.10
2019-05-06T13:32:56.405Z,42.80
2019-05-06T13:35:26.974Z,42.40
2019-05-06T13:37:57.024Z,41.70
2019-05-06T13:40:27.516Z,42.40
2019-05-06T13:43:13.007Z,40.70
2019-05-06T13:45:47.628Z,39.20
2019-05-06T13:48:22.747Z,40.00
2019-05-06T13:50:59.377Z,42.60
2019-05-06T13:53:39.028Z,41.10
2019-05-06T13:56:04.235Z,40.20
2019-05-06T13:58:32.865Z,41.10
2019-05-06T14:01:04.573Z,40.90
2019-05-06T14:03:34.771Z,41.50
2019-05-06T14:06:04.894Z,41.30
2019-05-06T14:08:35.008Z,41.70
2019-05-06T14:11:05.129Z,42.50
2019-05-06T14:13:35.255Z,41.50
2019-05-06T14:16:05.649Z,43.80
2019-05-06T14:18:37.667Z,42.90
2019-05-06T14:21:07.597Z,43.30
2019-05-06T14:23:37.789Z,44.00
2019-05-06T14:26:15.440Z,44.60
2019-05-06T14:29:03.530Z,43.70
2019-05-06T14:31:35.225Z,43.80
2019-05-06T14:34:05.280Z,44.90
2019-05-06T14:36:35.392Z,44.00
2019-05-06T14:39:08.021Z,43.80
2019-05-06T14:41:40.109Z,44.20
2019-05-06T14:44:12.246Z,44.10
2019-05-06T14:46:49.914Z,45.40
2019-05-06T14:49:22.326Z,44.60
2019-05-06T14:51:53.712Z,43.90
2019-05-06T14:54:23.612Z,44.00
2019-05-06T14:57:12.196Z,44.10
2019-05-06T14:59:42.329Z,43.20
2019-05-06T15:02:13.274Z,43.30
2019-05-06T15:04:43.759Z,43.30
2019-05-06T15:07:14.013Z,43.70
2019-05-06T15:09:55.711Z,42.90
2019-05-06T15:12:15.680Z,42.60
2019-05-06T15:14:45.730Z,42.80
2019-05-06T15:17:16.617Z,44.00
2019-05-06T15:19:47.740Z,42.60
2019-05-06T15:22:17.853Z,43.80
2019-05-06T15:24:47.992Z,42.10
2019-05-06T15:27:17.968Z,43.00
2019-05-06T15:29:49.759Z,43.10
2019-05-06T15:32:22.208Z,43.10
2019-05-06T15:35:02.510Z,43.30
2019-05-06T15:37:38.663Z,43.00
2019-05-06T15:40:09.482Z,43.40
2019-05-06T15:42:39.481Z,43.70
2019-05-06T15:45:12.453Z,43.30
2019-05-06T15:47:42.841Z,43.40
2019-05-06T15:50:13.232Z,42.40
2019-05-06T15:52:43.759Z,41.50
2019-05-06T15:55:14.732Z,42.00
2019-05-06T15:57:44.785Z,43.20
2019-05-06T16:00:17.631Z,42.90
2019-05-06T16:02:47.750Z,43.20
2019-05-06T16:05:20.214Z,43.50
2019-05-06T16:07:49.638Z,43.60
2019-05-06T16:10:22.387Z,43.20
2019-05-06T16:12:53.439Z,43.30
2019-05-06T16:15:24.902Z,42.40
2019-05-06T16:17:55.284Z,42.80
2019-05-06T16:20:25.422Z,43.00
2019-05-06T16:22:57.180Z,43.70
2019-05-06T16:25:27.375Z,43.00
2019-05-06T16:27:57.839Z,43.60
2019-05-06T16:30:28.065Z,43.00
2019-05-06T16:32:58.193Z,42.90
2019-05-06T16:35:28.325Z,43.60
2019-05-06T16:37:58.451Z,43.20
2019-05-06T16:40:28.493Z,43.30
2019-05-06T16:42:58.616Z,42.70
2019-05-06T16:45:28.808Z,42.70
2019-05-06T16:47:59.860Z,43.90
2019-05-06T16:50:32.952Z,43.40
2019-05-06T16:53:02.723Z,43.90
2019-05-06T16:55:36.410Z,43.10
2019-05-06T16:58:08.912Z,43.60
2019-05-06T17:00:39.033Z,43.10
2019-05-06T17:03:14.599Z,43.00
2019-05-06T17:05:46.595Z,43.40
2019-05-06T17:08:16.748Z,43.70
2019-05-06T17:10:46.801Z,44.00
2019-05-06T17:13:16.861Z,43.30
2019-05-06T17:15:49.836Z,43.20
2019-05-06T17:18:18.663Z,43.00
2019-05-06T17:20:49.311Z,43.30
2019-05-06T17:23:22.330Z,44.10
2019-05-06T17:25:52.091Z,44.60
2019-05-06T17:28:39.668Z,44.40
2019-05-06T17:31:13.247Z,44.20
2019-05-06T17:33:45.400Z,42.90
2019-05-06T17:36:17.573Z,43.90
2019-05-06T17:38:49.201Z,43.40
2019-05-06T17:41:19.316Z,44.00
2019-05-06T17:43:51.980Z,44.50
2019-05-06T17:46:22.953Z,44.40
2019-05-06T17:48:57.897Z,43.30
2019-05-06T17:51:33.823Z,44.50
2019-05-06T17:54:05.717Z,44.10
2019-05-06T17:56:35.837Z,44.90
2019-05-06T17:59:06.033Z,45.20
2019-05-06T18:01:37.824Z,44.10
2019-05-06T18:04:07.816Z,43.40
2019-05-06T18:06:38.080Z,43.80
2019-05-06T18:09:09.445Z,43.70
2019-05-06T18:11:42.412Z,43.80
2019-05-06T18:14:13.007Z,44.00
2019-05-06T18:16:43.004Z,44.50
2019-05-06T18:19:13.072Z,44.90
2019-05-06T18:21:43.201Z,45.10
2019-05-06T18:24:13.763Z,45.90
2019-05-06T18:26:43.817Z,46.20
2019-05-06T18:29:13.885Z,46.90
2019-05-06T18:31:43.976Z,47.30
2019-05-06T18:34:14.025Z,47.90
2019-05-06T18:36:44.096Z,48.10
2019-05-06T18:39:14.230Z,48.20
2019-05-06T18:41:44.300Z,48.30
2019-05-06T18:44:15.115Z,48.50
2019-05-06T18:46:45.180Z,48.50
2019-05-06T18:49:15.247Z,48.80
2019-05-06T18:51:45.448Z,48.90
2019-05-06T18:54:15.439Z,48.00
2019-05-06T18:56:45.493Z,47.80
2019-05-06T18:59:15.580Z,48.00
2019-05-06T19:01:45.780Z,47.90
2019-05-06T19:04:17.557Z,47.90
2019-05-06T19:06:47.539Z,48.10
2019-05-06T19:09:25.168Z,48.70
2019-05-06T19:11:55.231Z,48.50
2019-05-06T19:14:25.290Z,48.50
2019-05-06T19:16:55.495Z,48.70
2019-05-06T19:19:27.310Z,50.30
2019-05-06T19:21:57.384Z,50.60
2019-05-06T19:24:27.592Z,50.00
2019-05-06T19:26:57.592Z,51.30
2019-05-06T19:29:27.734Z,51.60
2019-05-06T19:31:57.875Z,52.00
2019-05-06T19:34:27.947Z,52.10
2019-05-06T19:36:59.144Z,52.10
2019-05-06T19:39:29.133Z,50.40
2019-05-06T19:41:59.193Z,52.90
2019-05-06T19:44:30.392Z,51.20
2019-05-06T19:47:02.565Z,51.70
2019-05-06T19:49:32.976Z,51.70
2019-05-06T19:52:03.320Z,51.90
2019-05-06T19:54:34.597Z,52.80
2019-05-06T19:57:04.692Z,52.80
2019-05-06T19:59:34.757Z,52.70
2019-05-06T20:02:05.255Z,52.90
2019-05-06T20:04:36.762Z,53.20
2019-05-06T20:07:26.789Z,53.00
2019-05-06T20:10:03.391Z,53.30
2019-05-06T20:12:35.145Z,51.20
2019-05-06T20:15:25.634Z,53.10
2019-05-06T20:17:56.153Z,51.60
2019-05-06T20:20:26.213Z,52.80
2019-05-06T20:22:56.345Z,50.80
2019-05-06T20:25:26.473Z,51.90
2019-05-06T20:27:56.596Z,52.60
2019-05-06T20:30:26.661Z,51.80
2019-05-06T20:32:56.789Z,52.20
2019-05-06T20:35:27.221Z,51.50
2019-05-06T20:37:57.569Z,51.70
2019-05-06T20:40:27.709Z,53.30
2019-05-06T20:42:57.771Z,53.50
2019-05-06T20:45:27.929Z,53.40
2019-05-06T20:47:58.410Z,54.30
2019-05-06T20:50:28.480Z,53.90
2019-05-06T20:52:58.612Z,53.90
2019-05-06T20:55:32.668Z,53.90
2019-05-06T20:58:02.678Z,53.50
2019-05-06T21:00:33.575Z,53.20
2019-05-06T21:03:04.252Z,52.80
2019-05-06T21:05:34.374Z,53.60
2019-05-06T21:08:04.573Z,53.20
2019-05-06T21:10:34.927Z,54.10
2019-05-06T21:13:04.981Z,53.60
2019-05-06T21:15:35.168Z,48.50
2019-05-06T21:18:05.376Z,46.60
2019-05-06T21:20:35.668Z,44.00
2019-05-06T21:23:05.807Z,46.70
2019-05-06T21:25:35.922Z,46.00
2019-05-06T21:28:05.978Z,39.20
2019-05-06T21:30:37.100Z,45.30
2019-05-06T21:33:08.146Z,46.50
2019-05-06T21:35:39.169Z,44.80
2019-05-06T21:38:09.372Z,44.60
2019-05-06T21:40:39.429Z,45.90
2019-05-06T21:43:09.573Z,46.90
2019-05-06T21:45:39.745Z,47.30
2019-05-06T21:48:09.896Z,51.00
2019-05-06T21:50:39.953Z,52.00
2019-05-06T21:53:12.329Z,49.80
2019-05-06T21:55:41.689Z,44.60
2019-05-06T21:58:12.403Z,42.90
2019-05-06T22:00:49.437Z,48.90
2019-05-06T22:03:19.577Z,49.70
2019-05-06T22:05:49.624Z,50.80
2019-05-06T22:08:21.564Z,50.60
2019-05-06T22:10:52.871Z,50.90
2019-05-06T22:13:24.601Z,50.30
2019-05-06T22:15:54.719Z,49.20
2019-05-06T22:18:25.649Z,50.70
2019-05-06T22:21:13.658Z,50.90
2019-05-06T22:23:53.955Z,49.30
2019-05-06T22:26:24.445Z,52.10
2019-05-06T22:28:54.575Z,51.60
2019-05-06T22:31:25.265Z,50.80
2019-05-06T22:33:55.592Z,51.60
2019-05-06T22:36:25.709Z,50.30
2019-05-06T22:38:58.565Z,51.10
2019-05-06T22:41:28.762Z,50.00
2019-05-06T22:44:12.151Z,51.80
2019-05-06T22:46:32.784Z,51.70
2019-05-06T22:49:02.561Z,50.00
2019-05-06T22:51:33.857Z,46.80
2019-05-06T22:54:03.988Z,51.40
2019-05-06T22:56:34.177Z,52.80
2019-05-06T22:59:04.289Z,52.90
2019-05-06T23:01:54.257Z,53.50
2019-05-06T23:04:25.449Z,53.10
2019-05-06T23:06:55.488Z,53.20
2019-05-06T23:09:25.550Z,53.40
2019-05-06T23:11:55.616Z,53.10
2019-05-06T23:14:31.304Z,54.30
2019-05-06T23:16:57.432Z,54.40
2019-05-06T23:19:27.490Z,53.90
2019-05-06T23:21:57.550Z,54.10
2019-05-06T23:24:27.604Z,53.80
2019-05-06T23:26:57.617Z,52.20
2019-05-06T23:29:27.983Z,51.80
2019-05-06T23:31:58.371Z,51.00
2019-05-06T23:34:28.734Z,53.00
2019-05-06T23:37:02.927Z,52.70
2019-05-06T23:40:14.101Z,52.20
2019-05-06T23:43:22.173Z,51.40
2019-05-06T23:46:28.786Z,53.70
2019-05-06T23:49:35.675Z,54.60
2019-05-06T23:52:42.969Z,54.40
2019-05-06T23:55:49.340Z,54.30
2019-05-06T23:58:18.268Z,54.60
